Time;durP1;ratioP1;P1;durP2;ratioP2;P2;SDS_P1;SDS_P2;PMS_P1;PMS_P2;Temp;Humidity;BMP_temperature;BMP_pressure;BME280_temperature;BME280_humidity;BME280_pressure;Samples;Min_cycle;Max_cycle;Signal;HPM_P1;HPM_P2
2023/10/11 00:03:35;;;;;;;10.00;6.37;;;19.10;97.70;;;;;;10530909;28;20410;-65
2023/10/11 00:08:40;;;;;;;8.98;6.35;;;19.00;97.70;;;;;;10527613;28;20406;-66
2023/10/11 00:13:40;;;;;;;10.23;6.22;;;19.00;97.60;;;;;;10522450;28;20494;-66
2023/10/11 00:18:42;;;;;;;8.47;6.00;;;19.00;97.60;;;;;;10530457;28;20412;-65
2023/10/11 00:23:45;;;;;;;10.48;6.53;;;19.00;97.70;;;;;;10533407;28;20958;-64
2023/10/11 00:28:46;;;;;;;10.88;6.47;;;19.00;97.70;;;;;;10527406;28;20766;-66
2023/10/11 00:33:47;;;;;;;8.97;6.30;;;19.00;97.70;;;;;;10536241;28;20499;-67
2023/10/11 00:38:50;;;;;;;9.20;6.40;;;19.00;97.80;;;;;;10531803;28;20509;-66
2023/10/11 00:43:55;;;;;;;11.17;6.80;;;19.00;97.80;;;;;;10522706;28;20495;-67
2023/10/11 00:49:14;;;;;;;9.90;7.05;;;19.00;97.90;;;;;;10532455;28;20483;-66
2023/10/11 00:54:15;;;;;;;9.43;6.32;;;19.00;97.90;;;;;;10540937;28;20933;-65
2023/10/11 00:59:21;;;;;;;11.15;6.40;;;19.00;97.90;;;;;;10530126;28;20390;-66
2023/10/11 01:04:22;;;;;;;10.33;6.93;;;19.00;98.00;;;;;;10513424;28;20923;-65
2023/10/11 01:09:28;;;;;;;11.15;6.50;;;19.00;98.00;;;;;;10526152;28;20941;-66
2023/10/11 01:14:36;;;;;;;10.73;6.90;;;19.00;98.00;;;;;;10529427;28;20398;-67
2023/10/11 01:19:37;;;;;;;11.03;7.33;;;19.00;98.10;;;;;;10525863;28;20529;-66
2023/10/11 01:24:41;;;;;;;12.30;6.97;;;18.90;98.10;;;;;;10503655;28;20530;-67
2023/10/11 01:29:41;;;;;;;12.57;7.43;;;18.90;98.20;;;;;;10523658;28;20564;-65
2023/10/11 01:34:44;;;;;;;11.90;7.40;;;18.90;98.30;;;;;;10531685;28;20902;-66
2023/10/11 01:39:45;;;;;;;13.27;7.70;;;18.90;98.20;;;;;;10534134;28;20488;-66
2023/10/11 01:44:49;;;;;;;10.53;7.63;;;18.90;98.30;;;;;;10530299;28;20404;-64
2023/10/11 01:49:52;;;;;;;11.00;7.50;;;18.90;98.30;;;;;;10521992;28;20928;-65
2023/10/11 01:54:56;;;;;;;12.95;8.10;;;18.90;98.30;;;;;;10533951;28;20461;-67
2023/10/11 01:59:58;;;;;;;12.32;7.28;;;18.90;98.30;;;;;;10526575;28;21102;-66
2023/10/11 02:04:59;;;;;;;13.05;7.95;;;18.80;98.30;;;;;;10523047;28;20411;-64
2023/10/11 02:09:59;;;;;;;11.73;7.10;;;18.90;98.40;;;;;;10522881;28;20972;-66
2023/10/11 02:15:07;;;;;;;13.23;7.93;;;18.90;98.40;;;;;;10529511;28;20676;-67
2023/10/11 02:20:15;;;;;;;12.77;7.77;;;18.90;98.40;;;;;;10480664;28;20404;-66
2023/10/11 02:25:24;;;;;;;11.82;7.80;;;18.90;98.50;;;;;;10524242;28;20393;-65
2023/10/11 02:30:25;;;;;;;11.13;7.40;;;18.90;98.40;;;;;;10527372;28;20407;-67
2023/10/11 02:35:31;;;;;;;13.68;8.68;;;18.90;98.50;;;;;;10516635;28;20559;-66
2023/10/11 02:40:37;;;;;;;12.80;7.83;;;18.80;98.50;;;;;;10540972;28;20422;-66
2023/10/11 02:45:38;;;;;;;11.13;7.63;;;18.80;98.40;;;;;;10550042;28;20397;-66
2023/10/11 02:50:41;;;;;;;13.40;7.95;;;18.80;98.50;;;;;;10544601;28;20402;-64
2023/10/11 02:55:43;;;;;;;13.00;7.97;;;18.80;98.50;;;;;;10537365;28;20409;-64
2023/10/11 03:00:44;;;;;;;12.15;8.00;;;18.80;98.50;;;;;;10538360;28;20417;-66
2023/10/11 03:05:45;;;;;;;11.68;8.07;;;18.80;98.50;;;;;;10545369;28;20773;-66
2023/10/11 03:10:56;;;;;;;11.73;7.90;;;18.80;98.40;;;;;;10537375;28;20406;-66
2023/10/11 03:15:59;;;;;;;11.38;7.88;;;18.80;98.40;;;;;;10531142;28;20777;-66
2023/10/11 03:21:09;;;;;;;10.60;7.60;;;18.70;98.50;;;;;;10539197;28;20899;-67
2023/10/11 03:26:23;;;;;;;12.90;7.93;;;18.80;98.50;;;;;;10533917;28;20402;-67
2023/10/11 03:31:28;;;;;;;13.03;7.80;;;18.80;98.50;;;;;;10532931;28;20416;-66
2023/10/11 03:36:35;;;;;;;10.95;7.60;;;18.70;98.50;;;;;;10529140;28;20403;-67
2023/10/11 03:41:45;;;;;;;13.50;7.95;;;18.70;98.50;;;;;;10516332;28;20420;-66
2023/10/11 03:46:48;;;;;;;13.05;8.05;;;18.70;98.40;;;;;;10540627;28;20410;-66
2023/10/11 03:51:49;;;;;;;11.73;8.10;;;18.70;98.40;;;;;;10534956;28;20410;-66
2023/10/11 03:56:54;;;;;;;12.20;7.83;;;18.80;98.50;;;;;;10530213;28;20437;-67
2023/10/11 04:01:59;;;;;;;12.13;7.70;;;18.70;98.40;;;;;;10525199;28;20436;-66
2023/10/11 04:07:05;;;;;;;12.10;8.13;;;18.70;98.40;;;;;;10539960;28;20745;-67
2023/10/11 04:12:10;;;;;;;13.05;7.90;;;18.70;98.40;;;;;;10527499;28;20793;-67
2023/10/11 04:17:15;;;;;;;10.70;7.75;;;18.70;98.40;;;;;;10532597;28;21022;-67
2023/10/11 04:22:23;;;;;;;11.82;7.82;;;18.70;98.40;;;;;;10531275;28;20721;-66
2023/10/11 04:37:44;;;;;;;14.33;8.03;;;18.70;98.40;;;;;;10533358;28;20430;-65
2023/10/11 04:42:45;;;;;;;11.93;7.77;;;18.60;98.50;;;;;;10526140;28;20404;-66
2023/10/11 04:47:52;;;;;;;12.70;8.07;;;18.60;98.40;;;;;;10535900;28;20459;-65
2023/10/11 04:52:56;;;;;;;14.18;8.50;;;18.60;98.40;;;;;;10535213;28;20893;-67
2023/10/11 04:58:07;;;;;;;12.73;8.27;;;18.60;98.50;;;;;;10529687;28;20432;-66
2023/10/11 05:03:09;;;;;;;11.93;8.00;;;18.60;98.40;;;;;;10531617;28;20417;-67
2023/10/11 05:08:24;;;;;;;12.60;7.80;;;18.60;98.50;;;;;;10530169;28;20490;-67
2023/10/11 05:13:36;;;;;;;12.63;7.80;;;18.60;98.50;;;;;;10516571;28;20394;-66
2023/10/11 05:18:38;;;;;;;11.85;7.60;;;18.60;98.50;;;;;;10529331;28;21041;-66
2023/10/11 05:24:14;;;;;;;13.45;8.25;;;18.60;98.50;;;;;;10526589;28;20408;-66
2023/10/11 05:29:31;;;;;;;12.20;7.90;;;18.60;98.50;;;;;;10520762;28;20402;-66
2023/10/11 05:34:51;;;;;;;12.65;7.68;;;18.60;98.50;;;;;;10533095;28;20943;-66
2023/10/11 05:56:00;;;;;;;12.73;7.78;;;18.60;98.50;;;;;;10509192;28;20410;-66
2023/10/11 06:01:05;;;;;;;12.80;7.87;;;18.90;98.60;;;;;;10532305;28;20968;-66
2023/10/11 06:06:13;;;;;;;11.77;7.90;;;18.60;98.60;;;;;;10513618;28;20458;-65
2023/10/11 06:11:15;;;;;;;14.77;8.20;;;18.60;98.60;;;;;;10533408;28;20424;-66
2023/10/11 06:16:15;;;;;;;12.65;8.27;;;18.60;98.70;;;;;;10509059;28;20404;-66
2023/10/11 06:21:24;;;;;;;12.50;8.40;;;18.60;98.70;;;;;;10525056;28;20411;-67
2023/10/11 06:31:40;;;;;;;12.97;8.30;;;18.60;98.60;;;;;;10522005;28;20511;-66
2023/10/11 06:36:43;;;;;;;14.70;9.02;;;18.60;98.60;;;;;;10540124;28;20408;-67
2023/10/11 06:41:50;;;;;;;14.38;8.52;;;18.60;98.60;;;;;;10546382;28;20584;-66
2023/10/11 06:46:51;;;;;;;13.43;8.70;;;18.50;98.60;;;;;;10527736;28;20458;-65
2023/10/11 06:51:51;;;;;;;13.97;8.37;;;19.00;98.70;;;;;;10520180;28;20467;-66
2023/10/11 06:56:52;;;;;;;14.47;8.73;;;18.50;98.60;;;;;;10541327;28;20929;-66
2023/10/11 07:01:53;;;;;;;14.20;7.90;;;18.60;98.60;;;;;;10534372;28;20980;-66
2023/10/11 07:06:53;;;;;;;13.27;8.43;;;18.60;98.60;;;;;;10530155;28;20413;-67
2023/10/11 07:12:28;;;;;;;12.13;8.37;;;18.60;98.60;;;;;;10514703;28;20425;-67
2023/10/11 07:17:15;;;;;;;12.48;8.35;;;18.60;98.60;;;;;;10534558;28;20560;-64
2023/10/11 07:22:18;;;;;;;14.15;8.82;;;18.60;98.80;;;;;;10516150;28;20944;-67
2023/10/11 07:27:26;;;;;;;14.17;8.50;;;18.60;98.60;;;;;;10534403;28;20392;-66
2023/10/11 07:32:27;;;;;;;12.88;8.60;;;18.60;98.60;;;;;;10526448;28;20407;-67
2023/10/11 07:37:27;;;;;;;15.82;8.63;;;18.50;98.60;;;;;;10532026;28;20415;-66
2023/10/11 07:42:36;;;;;;;12.40;8.07;;;18.50;98.60;;;;;;10528711;28;20482;-67
2023/10/11 07:47:37;;;;;;;14.20;9.20;;;18.60;98.70;;;;;;10528580;28;20444;-67
2023/10/11 07:52:40;;;;;;;13.27;8.75;;;18.60;98.60;;;;;;10533964;28;20416;-67
2023/10/11 07:57:47;;;;;;;13.80;8.33;;;18.60;98.60;;;;;;10510076;28;20406;-67
2023/10/11 08:03:03;;;;;;;14.43;8.73;;;18.50;98.60;;;;;;10529204;28;20793;-66
2023/10/11 08:08:05;;;;;;;13.73;9.05;;;18.60;98.70;;;;;;10524417;28;20511;-66
2023/10/11 08:13:14;;;;;;;14.63;9.15;;;18.50;98.70;;;;;;10536230;28;20404;-69
2023/10/11 08:18:16;;;;;;;13.33;9.03;;;18.60;98.80;;;;;;10529819;28;20773;-69
2023/10/11 08:23:28;;;;;;;15.77;9.77;;;18.60;99.00;;;;;;10529595;28;20780;-66
2023/10/11 08:28:28;;;;;;;16.17;9.87;;;18.50;99.10;;;;;;10530911;28;20462;-65
2023/10/11 08:33:30;;;;;;;16.47;10.17;;;18.50;99.10;;;;;;10522594;28;20475;-66
2023/10/11 08:38:32;;;;;;;16.03;9.50;;;18.60;99.10;;;;;;10514209;28;20420;-67
2023/10/11 08:43:36;;;;;;;16.23;9.48;;;18.60;99.00;;;;;;10539810;28;20806;-66
2023/10/11 08:48:39;;;;;;;16.90;9.48;;;18.60;98.90;;;;;;10528949;28;21635;-67
2023/10/11 08:53:46;;;;;;;14.87;9.70;;;18.60;98.90;;;;;;10528253;28;20780;-67
2023/10/11 08:58:51;;;;;;;16.20;9.70;;;18.60;98.90;;;;;;10523217;28;20406;-66
2023/10/11 09:04:11;;;;;;;17.98;10.32;;;18.60;98.90;;;;;;10507339;28;20493;-66
2023/10/11 09:09:34;;;;;;;18.40;10.05;;;18.60;98.90;;;;;;10531413;28;20897;-67
2023/10/11 09:14:34;;;;;;;17.20;10.30;;;18.70;98.90;;;;;;10514176;28;20515;-67
2023/10/11 09:19:50;;;;;;;16.48;9.85;;;18.60;98.90;;;;;;10526068;28;20774;-67
2023/10/11 09:25:20;;;;;;;17.73;10.68;;;18.70;99.00;;;;;;10536414;28;20402;-67
2023/10/11 09:30:21;;;;;;;19.27;11.20;;;18.70;99.00;;;;;;10524351;28;20404;-67
2023/10/11 09:35:29;;;;;;;16.37;10.57;;;18.70;99.20;;;;;;10537044;28;20462;-67
2023/10/11 09:40:34;;;;;;;17.08;10.30;;;18.60;99.10;;;;;;10522948;28;20431;-67
2023/10/11 09:45:41;;;;;;;21.77;11.73;;;18.70;99.10;;;;;;10531464;28;20409;-67
2023/10/11 09:50:43;;;;;;;20.95;11.38;;;18.70;99.20;;;;;;10532721;28;20793;-67
2023/10/11 09:55:50;;;;;;;18.15;10.50;;;18.70;99.20;;;;;;10502679;28;20417;-67
2023/10/11 10:01:18;;;;;;;21.03;10.80;;;18.80;99.20;;;;;;10532779;28;20678;-67
2023/10/11 10:06:19;;;;;;;16.95;10.82;;;18.80;99.30;;;;;;10519629;28;20409;-68
2023/10/11 10:11:19;;;;;;;17.30;9.67;;;18.80;99.20;;;;;;10505668;28;20784;-67
2023/10/11 10:16:59;;;;;;;15.37;9.03;;;18.80;99.20;;;;;;10525877;28;20414;-68
2023/10/11 10:22:17;;;;;;;17.73;9.53;;;18.90;99.60;;;;;;10506517;28;20422;-67
2023/10/11 10:27:36;;;;;;;15.53;9.00;;;18.90;99.50;;;;;;10517434;28;20404;-65
2023/10/11 10:32:56;;;;;;;13.23;8.20;;;18.90;99.50;;;;;;10536230;28;20483;-67
2023/10/11 10:37:57;;;;;;;15.33;8.27;;;19.00;99.60;;;;;;10512972;28;20917;-68
2023/10/11 10:43:23;;;;;;;14.05;8.00;;;19.00;99.50;;;;;;10539841;28;20426;-68
2023/10/11 10:48:24;;;;;;;13.20;7.47;;;19.00;99.30;;;;;;10534074;28;20402;-67
2023/10/11 10:53:36;;;;;;;11.27;6.80;;;19.10;99.30;;;;;;10527131;28;20413;-66
2023/10/11 10:58:39;;;;;;;12.10;7.13;;;19.10;99.30;;;;;;10542273;28;20410;-68
2023/10/11 11:03:41;;;;;;;12.60;7.30;;;19.20;99.30;;;;;;10544006;28;20895;-67
2023/10/11 11:08:42;;;;;;;9.95;6.32;;;19.20;99.20;;;;;;10531402;28;20468;-68
2023/10/11 11:13:43;;;;;;;10.53;6.53;;;19.30;99.40;;;;;;10551953;28;20761;-67
2023/10/11 11:18:44;;;;;;;12.50;6.37;;;19.30;99.50;;;;;;10543240;28;20804;-68
2023/10/11 11:23:46;;;;;;;12.00;5.97;;;19.30;99.30;;;;;;10538160;28;20418;-68
2023/10/11 11:28:48;;;;;;;11.32;6.05;;;19.30;99.30;;;;;;10529609;28;20481;-67
2023/10/11 11:34:05;;;;;;;10.47;6.20;;;19.30;99.30;;;;;;10530524;28;20473;-67
2023/10/11 11:44:31;;;;;;;10.77;5.68;;;19.40;99.30;;;;;;10522683;28;20447;-67
2023/10/11 11:49:35;;;;;;;11.30;5.63;;;19.40;99.30;;;;;;10524794;28;20408;-68
2023/10/11 11:54:35;;;;;;;11.60;5.70;;;19.40;99.30;;;;;;10531398;28;20405;-69
2023/10/11 11:59:41;;;;;;;10.18;5.85;;;19.40;99.80;;;;;;10535705;28;20480;-68
2023/10/11 12:04:44;;;;;;;12.20;5.53;;;19.50;99.80;;;;;;10542577;28;20436;-69
2023/10/11 12:09:44;;;;;;;11.57;5.57;;;19.50;99.70;;;;;;10516279;28;20951;-68
2023/10/11 12:14:45;;;;;;;9.87;5.20;;;19.60;99.80;;;;;;10527321;28;20408;-69
2023/10/11 12:19:53;;;;;;;9.43;5.03;;;19.50;99.90;;;;;;10527941;28;20400;-69
2023/10/11 12:24:58;;;;;;;9.67;4.73;;;19.60;99.80;;;;;;10529803;28;20932;-69
2023/10/11 12:30:00;;;;;;;10.80;5.23;;;19.70;99.60;;;;;;10524209;28;20398;-69
2023/10/11 12:35:06;;;;;;;8.80;4.85;;;19.70;99.50;;;;;;10522999;28;20389;-68
2023/10/11 12:40:21;;;;;;;8.75;5.10;;;19.70;99.40;;;;;;10532818;28;20418;-68
2023/10/11 12:45:22;;;;;;;9.77;4.77;;;19.70;99.40;;;;;;10528785;28;20400;-69
2023/10/11 12:50:23;;;;;;;7.25;4.63;;;19.70;99.30;;;;;;10521838;28;20927;-69
2023/10/11 12:55:25;;;;;;;9.55;4.30;;;19.80;99.30;;;;;;10512672;28;20907;-68
2023/10/11 13:00:29;;;;;;;8.03;4.23;;;19.80;99.30;;;;;;10526730;28;20413;-70
2023/10/11 13:05:30;;;;;;;8.40;4.10;;;19.80;99.20;;;;;;10512240;28;20495;-70
2023/10/11 13:10:33;;;;;;;7.83;4.23;;;19.80;99.20;;;;;;10520274;28;20423;-68
2023/10/11 13:15:34;;;;;;;9.82;4.60;;;19.90;99.20;;;;;;10512298;28;20409;-70
2023/10/11 13:20:35;;;;;;;9.43;4.37;;;19.90;99.20;;;;;;10509740;28;20492;-69
2023/10/11 13:25:36;;;;;;;8.00;3.92;;;19.90;99.20;;;;;;10534290;28;20400;-70
2023/10/11 13:30:36;;;;;;;7.90;4.43;;;19.90;99.20;;;;;;10528524;28;20808;-70
2023/10/11 13:35:37;;;;;;;8.00;4.47;;;19.90;99.30;;;;;;10516352;28;20400;-70
2023/10/11 13:40:41;;;;;;;7.03;4.60;;;19.90;99.30;;;;;;10529405;28;20921;-69
2023/10/11 13:45:56;;;;;;;7.43;4.57;;;19.90;99.40;;;;;;10529575;28;20399;-69
2023/10/11 13:50:56;;;;;;;7.25;4.30;;;19.90;99.40;;;;;;10525621;28;20829;-69
2023/10/11 13:56:09;;;;;;;9.05;4.70;;;19.90;99.50;;;;;;10522112;28;20484;-68
2023/10/11 14:12:11;;;;;;;8.65;4.63;;;19.90;99.60;;;;;;10471581;28;20478;-70
2023/10/11 14:17:15;;;;;;;8.45;4.43;;;19.90;99.60;;;;;;10523932;28;20449;-69
2023/10/11 14:22:16;;;;;;;7.20;4.50;;;19.90;99.60;;;;;;10519744;28;20463;-69
2023/10/11 14:27:18;;;;;;;9.13;4.38;;;19.80;99.60;;;;;;10524991;28;20395;-70
2023/10/11 14:32:19;;;;;;;7.97;4.60;;;19.90;99.60;;;;;;10530596;28;20874;-68
2023/10/11 14:37:19;;;;;;;7.45;4.85;;;19.90;99.70;;;;;;10530817;28;20399;-69
2023/10/11 14:42:20;;;;;;;7.23;4.57;;;19.90;99.60;;;;;;10532694;28;20911;-69
2023/10/11 14:47:20;;;;;;;9.18;4.22;;;19.90;99.60;;;;;;10517358;28;20767;-69
2023/10/11 14:52:21;;;;;;;10.50;4.23;;;19.90;99.90;;;;;;10534465;28;20926;-70
2023/10/11 14:57:21;;;;;;;9.07;3.73;;;20.00;99.90;;;;;;10516037;28;20400;-69
2023/10/11 15:02:22;;;;;;;10.10;4.00;;;20.00;99.90;;;;;;10533241;28;20488;-69
2023/10/11 15:07:23;;;;;;;9.70;4.30;;;20.00;99.90;;;;;;10538417;28;20920;-69
2023/10/11 15:12:23;;;;;;;9.30;3.80;;;20.00;99.90;;;;;;10535651;28;20911;-69
2023/10/11 15:17:26;;;;;;;9.70;3.80;;;20.00;99.90;;;;;;10529612;28;20947;-69
2023/10/11 15:22:27;;;;;;;7.07;3.92;;;20.10;99.90;;;;;;10522971;28;20406;-69
2023/10/11 15:27:29;;;;;;;10.73;3.80;;;20.10;99.90;;;;;;10518859;28;20887;-69
2023/10/11 15:32:31;;;;;;;9.40;4.00;;;20.00;99.90;;;;;;10532941;28;20411;-69
2023/10/11 15:37:32;;;;;;;11.95;4.07;;;20.00;99.90;;;;;;10504956;28;20761;-69
2023/10/11 15:42:33;;;;;;;11.57;4.45;;;19.90;99.90;;;;;;10530375;28;20428;-68
2023/10/11 15:47:35;;;;;;;9.47;4.40;;;20.00;99.90;;;;;;10535146;28;20888;-69
2023/10/11 15:52:36;;;;;;;9.40;4.28;;;20.00;99.90;;;;;;10513530;28;20407;-69
2023/10/11 15:57:36;;;;;;;10.57;5.33;;;20.20;99.90;;;;;;10522257;28;20462;-69
2023/10/11 16:02:38;;;;;;;10.93;6.03;;;19.90;99.90;;;;;;10508444;28;20816;-69
2023/10/11 16:07:38;;;;;;;14.02;6.38;;;20.40;99.90;;;;;;10535733;28;20405;-70
2023/10/11 16:12:43;;;;;;;11.70;6.32;;;19.90;99.90;;;;;;10532116;28;20404;-70
2023/10/11 16:17:45;;;;;;;14.90;7.30;;;19.80;99.90;;;;;;10531625;28;20398;-70
2023/10/11 16:22:46;;;;;;;14.10;6.78;;;19.80;99.90;;;;;;10502325;28;20418;-69
2023/10/11 16:27:48;;;;;;;14.23;6.88;;;19.80;99.90;;;;;;10495841;28;20482;-67
2023/10/11 16:32:54;;;;;;;16.05;7.68;;;19.80;99.90;;;;;;10531118;28;20398;-69
2023/10/11 16:37:55;;;;;;;16.85;7.45;;;19.80;99.90;;;;;;10515473;28;20410;-66
2023/10/11 16:42:55;;;;;;;14.68;7.22;;;19.80;99.90;;;;;;10516293;28;20414;-66
2023/10/11 16:47:57;;;;;;;13.97;7.43;;;19.80;99.90;;;;;;10521418;28;20404;-67
2023/10/11 16:52:58;;;;;;;14.15;8.15;;;19.90;99.90;;;;;;10514383;28;20953;-71
2023/10/11 16:57:58;;;;;;;12.83;7.67;;;19.90;99.90;;;;;;10508494;28;20417;-65
2023/10/11 17:03:03;;;;;;;14.87;7.73;;;19.90;99.90;;;;;;10520836;28;20776;-66
2023/10/11 17:08:05;;;;;;;14.40;8.10;;;19.80;99.90;;;;;;10523485;28;20423;-66
2023/10/11 17:13:07;;;;;;;18.92;8.05;;;21.00;99.90;;;;;;10525149;28;20415;-63
2023/10/11 17:18:08;;;;;;;16.17;8.10;;;20.30;99.90;;;;;;10504170;28;20403;-65
2023/10/11 17:23:09;;;;;;;15.27;8.10;;;19.90;99.90;;;;;;10532486;28;20408;-66
2023/10/11 17:28:10;;;;;;;14.40;8.03;;;19.80;99.90;;;;;;10528373;28;20784;-66
2023/10/11 17:33:11;;;;;;;14.93;7.80;;;19.80;99.90;;;;;;10513371;28;20398;-66
2023/10/11 17:38:15;;;;;;;15.70;8.70;;;19.80;99.90;;;;;;10537038;28;20414;-68
2023/10/11 17:43:18;;;;;;;16.30;8.30;;;19.80;99.90;;;;;;10531952;28;20417;-66
2023/10/11 17:48:19;;;;;;;15.07;8.30;;;19.80;99.90;;;;;;10526797;28;20393;-67
2023/10/11 17:53:20;;;;;;;18.17;9.02;;;19.80;99.90;;;;;;10530208;28;20425;-67
2023/10/11 17:58:20;;;;;;;16.98;8.70;;;19.80;99.90;;;;;;10533603;28;20788;-67
2023/10/11 18:03:21;;;;;;;14.57;8.50;;;19.80;99.90;;;;;;10511790;28;20411;-66
2023/10/11 18:08:22;;;;;;;16.48;8.95;;;19.80;99.90;;;;;;10503788;28;20817;-66
2023/10/11 18:13:23;;;;;;;16.37;9.07;;;19.80;99.90;;;;;;10512958;28;20434;-66
2023/10/11 18:18:25;;;;;;;16.40;9.27;;;19.80;99.90;;;;;;10521210;28;20556;-65
2023/10/11 18:23:27;;;;;;;18.73;9.73;;;19.80;99.90;;;;;;10516615;28;20427;-64
2023/10/11 18:28:30;;;;;;;15.37;9.33;;;19.70;99.90;;;;;;10500213;28;20415;-66
2023/10/11 18:33:34;;;;;;;16.58;9.65;;;19.80;99.90;;;;;;10521605;28;20413;-65
2023/10/11 18:38:35;;;;;;;16.20;10.27;;;19.80;99.90;;;;;;10500638;28;20476;-66
2023/10/11 18:43:36;;;;;;;16.67;9.85;;;19.70;99.90;;;;;;10515169;28;20413;-66
2023/10/11 18:48:37;;;;;;;16.02;10.20;;;19.70;99.90;;;;;;10506125;28;20396;-67
2023/10/11 18:53:38;;;;;;;15.18;9.52;;;19.70;99.90;;;;;;10511547;28;20399;-66
2023/10/11 18:58:39;;;;;;;17.15;9.38;;;19.70;99.90;;;;;;10518802;28;20494;-66
2023/10/11 19:03:39;;;;;;;22.90;13.73;;;19.70;99.90;;;;;;10530004;28;20414;-66
2023/10/11 19:08:40;;;;;;;17.70;10.37;;;19.70;99.90;;;;;;10501052;28;20921;-67
2023/10/11 19:13:43;;;;;;;18.53;10.43;;;19.70;99.90;;;;;;10515424;28;20477;-65
2023/10/11 19:18:44;;;;;;;15.23;10.30;;;19.70;99.90;;;;;;10524691;28;20885;-65
2023/10/11 19:23:45;;;;;;;17.33;10.40;;;19.60;99.90;;;;;;10522392;28;20611;-65
2023/10/11 19:28:46;;;;;;;17.88;11.00;;;19.60;99.90;;;;;;10525291;28;20415;-66
2023/10/11 19:33:47;;;;;;;19.63;11.20;;;19.70;99.90;;;;;;10523774;28;20495;-66
2023/10/11 19:38:48;;;;;;;19.93;11.17;;;19.70;99.90;;;;;;10532879;28;20850;-66
2023/10/11 19:43:50;;;;;;;21.27;11.55;;;19.60;99.90;;;;;;10521978;28;21551;-66
2023/10/11 19:48:50;;;;;;;20.55;11.98;;;19.60;99.90;;;;;;10528768;28;20446;-66
2023/10/11 19:53:51;;;;;;;19.63;11.45;;;19.60;99.90;;;;;;10526884;28;20476;-65
2023/10/11 19:58:52;;;;;;;18.63;11.43;;;19.60;99.90;;;;;;10507227;28;20408;-66
2023/10/11 20:03:54;;;;;;;18.25;11.07;;;19.60;99.90;;;;;;10504464;28;20406;-65
2023/10/11 20:08:54;;;;;;;20.17;11.65;;;19.60;99.90;;;;;;10520227;28;20414;-65
2023/10/11 20:13:55;;;;;;;18.60;10.97;;;19.60;99.90;;;;;;10525093;28;20440;-66
2023/10/11 20:18:57;;;;;;;17.53;11.40;;;19.60;99.90;;;;;;10531751;28;20769;-66
2023/10/11 20:23:58;;;;;;;21.10;12.43;;;19.60;99.90;;;;;;10517717;28;20865;-64
2023/10/11 20:29:00;;;;;;;21.93;12.57;;;19.50;99.90;;;;;;10499915;28;20400;-65
2023/10/11 20:34:00;;;;;;;17.53;11.47;;;19.50;99.90;;;;;;10514060;28;20492;-65
2023/10/11 20:39:08;;;;;;;21.27;13.10;;;19.50;99.90;;;;;;10543068;28;20401;-66
2023/10/11 20:44:11;;;;;;;20.92;12.27;;;19.50;99.90;;;;;;10515393;28;20405;-65
2023/10/11 20:49:12;;;;;;;18.85;11.70;;;19.60;99.90;;;;;;10522791;28;20455;-66
2023/10/11 20:54:13;;;;;;;21.60;11.77;;;19.50;99.90;;;;;;10499918;28;20425;-66
2023/10/11 20:59:15;;;;;;;20.88;11.82;;;19.50;99.90;;;;;;10515877;28;20549;-66
2023/10/11 21:04:26;;;;;;;20.50;11.93;;;19.50;99.90;;;;;;10524687;28;20411;-65
2023/10/11 21:09:30;;;;;;;21.03;12.17;;;19.50;99.90;;;;;;10513447;28;20549;-65
2023/10/11 21:14:30;;;;;;;21.35;12.13;;;19.50;99.90;;;;;;10501420;28;20403;-66
2023/10/11 21:19:31;;;;;;;17.02;10.93;;;19.50;99.90;;;;;;10516775;28;20902;-63
2023/10/11 21:24:33;;;;;;;20.38;11.30;;;19.50;99.90;;;;;;10516312;28;20785;-65
2023/10/11 21:29:33;;;;;;;17.42;11.27;;;19.40;99.90;;;;;;10517826;28;20977;-66
2023/10/11 21:34:34;;;;;;;21.20;11.77;;;19.50;99.90;;;;;;10512503;28;20460;-66
2023/10/11 21:39:35;;;;;;;22.83;12.13;;;19.40;99.90;;;;;;10509849;28;20509;-65
2023/10/11 21:44:35;;;;;;;19.37;11.07;;;19.50;99.90;;;;;;10520790;28;20413;-65
2023/10/11 21:49:36;;;;;;;21.23;12.43;;;19.40;99.90;;;;;;10524147;28;20411;-65
2023/10/11 21:54:37;;;;;;;20.53;11.50;;;19.40;99.90;;;;;;10523452;28;20905;-66
2023/10/11 21:59:38;;;;;;;19.73;11.95;;;19.30;99.90;;;;;;10516309;28;20978;-65
2023/10/11 22:04:38;;;;;;;21.10;11.67;;;19.40;99.90;;;;;;10508548;28;20479;-66
2023/10/11 22:09:41;;;;;;;21.63;11.77;;;19.40;99.90;;;;;;10513110;28;20402;-66
2023/10/11 22:14:42;;;;;;;19.23;11.40;;;19.40;99.90;;;;;;10516957;28;20772;-66
2023/10/11 22:19:45;;;;;;;20.10;12.20;;;19.40;99.90;;;;;;10521421;28;20455;-66
2023/10/11 22:24:46;;;;;;;20.67;11.87;;;19.40;99.90;;;;;;10506545;28;20424;-66
2023/10/11 22:29:49;;;;;;;18.58;11.68;;;19.40;99.90;;;;;;10521722;28;20396;-65
2023/10/11 22:34:50;;;;;;;19.63;10.80;;;19.30;99.90;;;;;;10532868;28;20952;-65
2023/10/11 22:39:54;;;;;;;21.87;12.10;;;19.30;99.90;;;;;;10532676;28;20449;-64
2023/10/11 22:44:55;;;;;;;19.10;11.53;;;19.30;99.90;;;;;;10521849;28;20769;-65
2023/10/11 22:49:55;;;;;;;18.53;11.47;;;19.30;99.90;;;;;;10526609;28;20408;-67
2023/10/11 22:54:56;;;;;;;19.03;11.20;;;19.30;99.90;;;;;;10533274;28;20468;-64
2023/10/11 22:59:56;;;;;;;21.50;11.87;;;19.30;99.90;;;;;;10520815;28;20444;-65
2023/10/11 23:04:57;;;;;;;21.70;11.97;;;19.30;99.90;;;;;;10539644;28;20416;-66
2023/10/11 23:09:57;;;;;;;19.50;11.43;;;19.30;99.90;;;;;;10548210;28;20440;-64
2023/10/11 23:15:06;;;;;;;19.53;11.63;;;19.30;99.90;;;;;;10519681;28;20408;-65
2023/10/11 23:20:17;;;;;;;19.92;11.70;;;19.30;99.90;;;;;;10512211;28;21004;-65
2023/10/11 23:25:36;;;;;;;20.37;10.83;;;19.30;99.90;;;;;;10538582;28;20410;-65
2023/10/11 23:30:37;;;;;;;18.23;11.30;;;19.30;99.90;;;;;;10534883;28;20399;-66
2023/10/11 23:35:37;;;;;;;17.42;10.63;;;19.20;99.90;;;;;;10550393;28;20402;-66
2023/10/11 23:40:47;;;;;;;16.70;9.53;;;19.20;99.90;;;;;;10539059;28;20451;-65
2023/10/11 23:45:52;;;;;;;14.90;8.90;;;19.20;99.90;;;;;;10537660;28;21028;-65
2023/10/11 23:50:53;;;;;;;14.48;8.63;;;19.20;99.90;;;;;;10536246;28;20396;-65
2023/10/11 23:55:54;;;;;;;13.80;8.80;;;19.20;99.90;;;;;;10538783;28;20451;-65
